Time;durP1;ratioP1;P1;durP2;ratioP2;P2;SDS_P1;SDS_P2;PMS_P1;PMS_P2;Temp;Humidity;BMP_temperature;BMP_pressure;BME280_temperature;BME280_humidity;BME280_pressure;Samples;Min_cycle;Max_cycle;Signal;HPM_P1;HPM_P2
2023/02/27 00:01:19;;;;;;;12.70;5.80;;;;;;;-3.54;100.00;102081.34;4992225;28;20037;-71
2023/02/27 00:03:45;;;;;;;10.90;5.40;;;;;;;-3.62;100.00;102078.94;4988463;28;20041;-73
2023/02/27 00:06:10;;;;;;;13.77;6.85;;;;;;;-3.63;100.00;102078.97;5005783;28;20400;-72
2023/02/27 00:08:36;;;;;;;;;;;;;;;-3.63;100.00;102079.84;5005912;28;20116;-74
2023/02/27 00:11:01;;;;;;;;;;;;;;;-3.55;100.00;102095.31;5006089;28;19966;-73
2023/02/27 00:13:26;;;;;;;8.67;5.20;;;;;;;-3.54;100.00;102096.16;5005737;28;19917;-73
2023/02/27 00:15:52;;;;;;;12.82;5.00;;;;;;;-3.42;100.00;102116.72;5003600;28;20411;-73
2023/02/27 00:18:17;;;;;;;;;;;;;;;-3.37;100.00;102135.78;5006203;28;20037;-73
2023/02/27 00:20:43;;;;;;;8.63;4.25;;;;;;;-3.36;100.00;102131.41;5005308;28;19920;-74
2023/02/27 00:23:09;;;;;;;11.65;5.28;;;;;;;-3.38;100.00;102126.22;5005618;28;20034;-73
2023/02/27 00:25:35;;;;;;;11.98;5.20;;;;;;;-3.38;100.00;102123.59;5005475;28;20049;-72
2023/02/27 00:28:00;;;;;;;;;;;;;;;-3.38;100.00;102115.75;5004676;28;20121;-73
2023/02/27 00:30:26;;;;;;;8.95;4.82;;;;;;;-3.43;100.00;102110.66;5004615;28;20051;-74
2023/02/27 00:32:54;;;;;;;13.43;5.90;;;;;;;-3.51;100.00;102096.97;5004009;28;20261;-74
2023/02/27 00:35:20;;;;;;;13.30;5.47;;;;;;;-3.58;100.00;102098.00;4991336;28;20091;-73
2023/02/27 00:37:46;;;;;;;8.57;4.32;;;;;;;-3.64;100.00;102085.94;5003986;28;20030;-74
2023/02/27 00:40:12;;;;;;;10.15;5.13;;;;;;;-3.54;100.00;102093.56;4990287;28;20026;-74
2023/02/27 00:42:37;;;;;;;10.80;4.38;;;;;;;-3.56;100.00;102096.19;4987590;28;20537;-74
2023/02/27 00:45:04;;;;;;;10.75;4.53;;;;;;;-3.52;100.00;102091.75;4985658;28;20022;-74
2023/02/27 00:47:30;;;;;;;14.95;5.38;;;;;;;-3.34;100.00;102109.56;5001676;28;20033;-73
2023/02/27 00:49:55;;;;;;;;;;;;;;;-3.24;100.00;102116.25;4987660;28;20030;-74
2023/02/27 00:52:21;;;;;;;13.65;5.80;;;;;;;-3.17;100.00;102124.78;4989840;28;20386;-74
2023/02/27 00:54:46;;;;;;;16.25;7.53;;;;;;;-3.12;100.00;102135.97;5003912;28;20069;-74
2023/02/27 00:57:12;;;;;;;13.20;5.80;;;;;;;-3.20;100.00;102138.81;4987189;28;20044;-73
2023/02/27 00:59:39;;;;;;;10.55;5.57;;;;;;;-3.27;100.00;102131.16;4987436;28;20493;-71
2023/02/27 01:02:04;;;;;;;11.65;5.38;;;;;;;-3.31;100.00;102135.59;4985873;28;20042;-73
2023/02/27 01:04:29;;;;;;;;;;;;;;;-3.33;100.00;102136.53;4976610;28;20029;-74
2023/02/27 01:06:55;;;;;;;19.80;5.23;;;;;;;-3.38;100.00;102136.66;5003426;28;19952;-74
2023/02/27 01:09:20;;;;;;;11.25;5.18;;;;;;;-3.47;100.00;102126.44;4991165;28;20034;-74
2023/02/27 01:11:46;;;;;;;11.52;4.78;;;;;;;-3.58;100.00;102116.28;4986756;28;20037;-73
2023/02/27 01:14:11;;;;;;;;;;;;;;;-3.55;100.00;102110.97;4986708;28;20045;-74
2023/02/27 01:16:36;;;;;;;12.47;5.47;;;;;;;-3.55;100.00;102116.19;5003321;28;19954;-73
2023/02/27 01:19:02;;;;;;;;;;;;;;;-3.51;100.00;102116.97;4986122;28;20629;-73
2023/02/27 01:21:27;;;;;;;11.70;4.80;;;;;;;-3.51;100.00;102117.84;4986998;28;19914;-74
2023/02/27 01:23:53;;;;;;;14.82;7.03;;;;;;;-3.51;100.00;102125.69;5003364;28;20037;-74
2023/02/27 01:26:18;;;;;;;12.05;5.78;;;;;;;-3.51;100.00;102116.97;5003296;28;20455;-73
2023/02/27 01:28:43;;;;;;;12.07;4.43;;;;;;;-3.48;100.00;102119.53;5004667;28;20034;-74
2023/02/27 01:31:11;;;;;;;14.60;5.70;;;;;;;-3.51;100.00;102117.84;5004496;28;20033;-74
2023/02/27 01:33:36;;;;;;;12.13;5.68;;;;;;;-3.55;100.00;102116.19;5003531;28;20038;-74
2023/02/27 01:36:01;;;;;;;15.45;6.88;;;;;;;-3.57;100.00;102111.91;4985348;28;20038;-74
2023/02/27 01:38:27;;;;;;;11.48;4.93;;;;;;;-3.67;100.00;102106.91;4990930;28;20040;-74
2023/02/27 01:40:52;;;;;;;;;;;;;;;-3.72;100.00;102098.34;4987280;28;20018;-72
2023/02/27 01:43:20;;;;;;;13.30;5.30;;;;;;;-3.75;100.00;102101.00;4990834;28;20024;-74
2023/02/27 01:45:47;;;;;;;16.58;5.82;;;;;;;-3.83;100.00;102096.00;4986885;28;20037;-74
2023/02/27 01:48:22;;;;;;;10.85;4.78;;;;;;;-3.88;100.00;102087.41;4986749;28;20184;-74
2023/02/27 01:50:53;;;;;;;14.80;5.15;;;;;;;-3.94;100.00;102081.50;4986641;28;20049;-74
2023/02/27 01:53:23;;;;;;;15.35;5.75;;;;;;;-3.94;100.00;102086.72;4985458;28;20405;-71
2023/02/27 01:55:49;;;;;;;10.10;4.80;;;;;;;-3.91;100.00;102095.34;4986941;28;20045;-71
2023/02/27 01:58:15;;;;;;;14.52;4.90;;;;;;;-3.89;100.00;102101.34;4986809;28;20034;-73
2023/02/27 02:00:40;;;;;;;;;;;;;;;-3.87;100.00;102115.22;4987262;28;20345;-74
2023/02/27 02:03:20;;;;;;;15.35;4.70;;;;;;;-3.91;100.00;102117.94;5003779;28;20325;-74
2023/02/27 02:05:47;;;;;;;11.77;5.38;;;;;;;-4.02;100.00;102113.00;4986416;28;20038;-74
2023/02/27 02:08:17;;;;;;;15.63;4.78;;;;;;;-4.03;100.00;102119.06;4986783;28;20030;-72
2023/02/27 02:10:43;;;;;;;15.07;4.60;;;;;;;-4.00;100.00;102123.38;4986525;28;20030;-74
2023/02/27 02:13:09;;;;;;;12.05;5.40;;;;;;;-4.00;100.00;102128.59;4985708;28;20031;-71
2023/02/27 02:15:38;;;;;;;12.00;4.40;;;;;;;-3.97;100.00;102126.78;4986359;28;20053;-73
2023/02/27 02:18:58;;;;;;;10.43;4.50;;;;;;;-3.99;100.00;102125.94;5004518;28;20452;-74
2023/02/27 02:22:04;;;;;;;13.35;5.25;;;;;;;-3.96;100.00;102130.22;4936677;28;20191;-73
2023/02/27 02:24:51;;;;;;;14.38;5.05;;;;;;;-3.94;100.00;102139.75;4915995;29;20071;-73
2023/02/27 02:27:45;;;;;;;12.85;5.35;;;;;;;-3.92;100.00;102143.19;4909226;29;20563;-74
2023/02/27 02:30:54;;;;;;;8.45;4.65;;;;;;;-3.99;100.00;102141.59;4911031;29;20429;-74
2023/02/27 02:33:50;;;;;;;13.95;5.07;;;;;;;-3.92;100.00;102148.41;4924742;29;20049;-72
2023/02/27 02:36:50;;;;;;;11.57;4.55;;;;;;;-3.94;100.00;102139.75;4920792;29;20405;-73
2023/02/27 02:39:52;;;;;;;14.15;4.75;;;;;;;-3.93;100.00;102140.63;4922675;29;20121;-74
2023/02/27 02:42:42;;;;;;;11.15;4.28;;;;;;;-3.96;100.00;102141.53;4911097;29;20051;-74
2023/02/27 02:45:39;;;;;;;25.70;5.80;;;;;;;-4.01;100.00;102148.59;4922281;29;20513;-74
2023/02/27 02:48:19;;;;;;;13.32;4.60;;;;;;;-4.07;100.00;102140.94;4921058;29;20048;-71
2023/02/27 02:51:16;;;;;;;14.50;4.50;;;;;;;-4.11;100.00;102136.66;4913169;29;20560;-71
2023/02/27 02:53:52;;;;;;;15.13;4.72;;;;;;;-4.17;100.00;102128.97;4885151;29;20058;-74
2023/02/27 02:56:43;;;;;;;15.18;4.95;;;;;;;-4.20;100.00;102134.25;4987178;28;20125;-74
2023/02/27 02:59:18;;;;;;;14.45;4.65;;;;;;;-4.20;100.00;102142.09;4970919;28;20046;-70
2023/02/27 03:01:52;;;;;;;14.02;5.10;;;;;;;-4.18;100.00;102148.13;4988969;28;20392;-74
2023/02/27 03:04:26;;;;;;;10.07;4.05;;;;;;;-4.15;100.00;102151.50;5006781;28;20497;-74
2023/02/27 03:07:03;;;;;;;11.05;4.10;;;;;;;-4.13;100.00;102149.75;4973868;28;20087;-74
2023/02/27 03:09:37;;;;;;;15.82;5.70;;;;;;;-4.09;100.00;102154.00;4989377;28;20033;-70
2023/02/27 03:12:06;;;;;;;10.88;4.82;;;;;;;-4.08;100.00;102157.47;4988093;28;20034;-72
2023/02/27 03:14:49;;;;;;;12.45;3.65;;;;;;;-4.13;100.00;102159.31;5001279;28;20030;-73
2023/02/27 03:17:23;;;;;;;11.85;4.15;;;;;;;-4.16;100.00;102167.22;4988623;28;20145;-74
2023/02/27 03:19:55;;;;;;;11.40;4.25;;;;;;;-4.19;100.00;102164.66;5005193;28;20532;-71
2023/02/27 03:22:27;;;;;;;13.18;4.05;;;;;;;-4.29;100.00;102151.81;4987721;28;20096;-72
2023/02/27 03:24:57;;;;;;;10.23;3.90;;;;;;;-4.27;100.00;102154.41;4988312;28;20050;-72
2023/02/27 03:27:27;;;;;;;8.15;4.22;;;;;;;-4.27;100.00;102165.69;4993057;28;20036;-73
2023/02/27 03:30:02;;;;;;;9.85;3.90;;;;;;;-4.33;100.00;102160.63;4988720;28;20018;-74
2023/02/27 03:32:41;;;;;;;13.45;4.53;;;;;;;-4.34;100.00;102160.63;4990381;28;20026;-72
2023/02/27 03:35:08;;;;;;;9.52;4.22;;;;;;;-4.38;100.00;102164.19;5003798;28;20041;-75
2023/02/27 03:37:58;;;;;;;10.40;3.95;;;;;;;-4.38;100.00;102169.41;4988774;28;20415;-72
2023/02/27 03:40:32;;;;;;;13.05;4.10;;;;;;;-4.43;100.00;102159.06;4986876;28;20119;-73
2023/02/27 03:43:05;;;;;;;18.92;3.85;;;;;;;-4.49;100.00;102162.69;4988783;28;20049;-71
2023/02/27 03:46:01;;;;;;;12.07;4.30;;;;;;;-4.51;100.00;102143.59;4986451;28;20036;-74
2023/02/27 03:48:27;;;;;;;7.95;2.67;;;;;;;-4.52;100.00;102139.28;5004828;28;20473;-74
2023/02/27 03:50:54;;;;;;;14.20;4.32;;;;;;;-4.53;100.00;102139.31;4988133;28;20104;-74
2023/02/27 03:53:59;;;;;;;11.18;3.90;;;;;;;-4.41;100.00;102149.47;4992154;28;20037;-72
2023/02/27 03:56:30;;;;;;;8.50;4.15;;;;;;;-4.45;100.00;102155.63;4987591;28;20092;-71
2023/02/27 03:58:57;;;;;;;16.95;4.57;;;;;;;-4.47;100.00;102149.63;5002616;28;20025;-73
2023/02/27 04:01:22;;;;;;;9.30;3.63;;;;;;;-4.47;100.00;102144.41;4992095;28;20049;-73
2023/02/27 04:03:51;;;;;;;;;;;;;;;-4.45;100.00;102150.41;5004791;28;20466;-72
2023/02/27 04:09:24;;;;;;;12.95;5.05;;;;;;;-4.50;100.00;102167.91;5005714;28;20153;-71
2023/02/27 04:12:09;;;;;;;19.77;5.00;;;;;;;-4.53;100.00;102165.38;4971378;28;20498;-72
2023/02/27 04:14:41;;;;;;;11.52;4.25;;;;;;;-4.48;100.00;102176.56;5002270;28;20038;-74
2023/02/27 04:17:23;;;;;;;12.48;4.40;;;;;;;-4.56;100.00;102175.88;4986756;28;20061;-72
2023/02/27 04:19:54;;;;;;;11.43;4.10;;;;;;;-4.61;100.00;102178.56;5005334;28;20096;-71
2023/02/27 04:22:31;;;;;;;10.90;3.38;;;;;;;-4.61;100.00;102182.91;4986570;28;20042;-73
2023/02/27 04:25:07;;;;;;;12.65;4.30;;;;;;;-4.53;100.00;102186.22;4982975;28;20026;-73
2023/02/27 04:27:55;;;;;;;14.32;4.22;;;;;;;-4.48;100.00;102197.41;4984922;28;20045;-74
2023/02/27 04:30:36;;;;;;;17.75;4.25;;;;;;;-4.48;100.00;102202.63;4986550;28;20071;-73
2023/02/27 04:33:27;;;;;;;11.13;3.83;;;;;;;-4.53;100.00;102212.31;4984525;28;20092;-74
2023/02/27 04:35:58;;;;;;;11.85;4.13;;;;;;;-4.53;100.00;102207.09;4987215;28;20109;-73
2023/02/27 04:38:50;;;;;;;14.93;4.05;;;;;;;-4.58;100.00;102209.78;4988155;28;20541;-71
2023/02/27 04:41:22;;;;;;;9.40;3.42;;;;;;;-4.62;100.00;102212.47;5001153;28;20042;-74
2023/02/27 04:43:49;;;;;;;15.15;4.50;;;;;;;-4.68;100.00;102209.09;5003791;28;20034;-72
2023/02/27 04:46:19;;;;;;;12.82;4.25;;;;;;;-4.62;100.00;102215.09;4987663;28;20034;-74
2023/02/27 04:49:20;;;;;;;10.50;3.50;;;;;;;-4.56;100.00;102225.41;5003975;28;20172;-73
2023/02/27 04:52:03;;;;;;;15.93;4.10;;;;;;;-4.64;100.00;102219.47;4921944;28;20050;-73
2023/02/27 04:54:41;;;;;;;7.80;3.30;;;;;;;-4.73;100.00;102216.16;5000788;28;20333;-70
2023/02/27 04:57:10;;;;;;;9.93;3.92;;;;;;;-4.81;100.00;102211.97;4969878;28;20042;-74
2023/02/27 04:59:41;;;;;;;18.25;4.85;;;;;;;-4.80;100.00;102211.94;4987363;28;20318;-74
2023/02/27 05:02:24;;;;;;;12.57;4.97;;;;;;;-4.78;100.00;102217.97;4987425;28;20056;-74
2023/02/27 05:04:55;;;;;;;12.50;4.55;;;;;;;-4.54;100.00;102237.50;4971386;28;20052;-73
2023/02/27 05:07:25;;;;;;;13.23;5.28;;;;;;;-4.57;100.00;102240.16;5004004;28;20483;-73
2023/02/27 05:09:54;;;;;;;14.32;4.80;;;;;;;-4.60;100.00;102247.19;4987559;28;20052;-74
2023/02/27 05:12:34;;;;;;;14.07;4.95;;;;;;;-4.67;100.00;102247.28;5004569;28;20042;-72
2023/02/27 05:15:12;;;;;;;13.93;4.57;;;;;;;-4.74;100.00;102253.50;5003747;28;20038;-74
2023/02/27 05:17:53;;;;;;;15.98;5.05;;;;;;;-4.82;100.00;102241.50;5002456;28;20049;-74
2023/02/27 05:20:23;;;;;;;11.30;4.63;;;;;;;-4.79;100.00;102242.31;5003724;28;20038;-72
2023/02/27 05:23:07;;;;;;;13.65;5.57;;;;;;;-4.81;100.00;102246.69;4970954;28;20030;-71
2023/02/27 05:25:50;;;;;;;10.30;4.65;;;;;;;-4.85;100.00;102245.00;5001871;28;20038;-74
2023/02/27 05:28:22;;;;;;;18.27;5.57;;;;;;;-4.80;100.00;102243.22;5003063;28;20127;-73
2023/02/27 05:30:56;;;;;;;18.13;6.40;;;;;;;-4.76;100.00;102252.66;4987157;28;20128;-74
2023/02/27 05:33:32;;;;;;;20.15;6.85;;;;;;;-4.73;100.00;102263.06;4986387;28;20407;-74
2023/02/27 05:36:12;;;;;;;17.77;6.60;;;;;;;-4.78;100.00;102264.00;5002669;28;20387;-74
2023/02/27 05:38:47;;;;;;;15.02;6.60;;;;;;;-4.77;100.00;102260.53;5002358;28;20041;-74
2023/02/27 05:41:16;;;;;;;16.13;5.03;;;;;;;-4.76;100.00;102268.31;5004492;28;20034;-74
2023/02/27 05:44:00;;;;;;;22.95;6.25;;;;;;;-4.65;100.00;102283.75;5004314;28;20061;-74
2023/02/27 05:46:41;;;;;;;16.02;6.13;;;;;;;-4.76;100.00;102278.72;4986292;28;20080;-74
2023/02/27 05:49:14;;;;;;;21.52;5.80;;;;;;;-4.74;100.00;102289.13;5003477;28;20096;-72
2023/02/27 05:51:45;;;;;;;14.65;6.20;;;;;;;-4.71;100.00;102307.31;5004374;28;20041;-74
2023/02/27 05:54:26;;;;;;;26.30;6.30;;;;;;;-4.78;100.00;102310.91;5003476;28;20045;-74
2023/02/27 05:56:56;;;;;;;13.25;5.53;;;;;;;-4.81;100.00;102322.25;4990268;28;20470;-73
2023/02/27 05:59:33;;;;;;;13.65;5.45;;;;;;;-4.79;100.00;102315.28;5008292;28;20029;-72
2023/02/27 06:01:58;;;;;;;20.02;6.28;;;;;;;-4.85;100.00;102315.34;5006855;28;20061;-74
2023/02/27 06:04:23;;;;;;;16.30;6.35;;;;;;;-4.80;100.00;102307.47;5008751;28;20549;-71
2023/02/27 06:06:49;;;;;;;;;;;;;;;-4.73;100.00;102314.28;4991261;28;20056;-70
2023/02/27 06:09:15;;;;;;;13.05;5.00;;;;;;;-4.69;100.00;102322.03;5008695;28;19921;-73
2023/02/27 06:11:41;;;;;;;16.17;5.05;;;;;;;-4.63;100.00;102328.91;5008154;28;20046;-74
2023/02/27 06:14:06;;;;;;;15.20;5.93;;;;;;;-4.60;100.00;102330.59;5007233;28;20410;-74
2023/02/27 06:16:32;;;;;;;;;;;;;;;-4.63;100.00;102331.50;5007719;28;20046;-72
2023/02/27 06:18:58;;;;;;;;;;;;;;;-4.54;100.00;102335.69;4991593;28;19913;-73
2023/02/27 06:21:23;;;;;;;20.45;6.88;;;;;;;-4.38;100.00;102351.94;5008106;28;19925;-74
2023/02/27 06:23:48;;;;;;;;;;;;;;;-4.49;100.00;102352.13;4991336;28;20530;-72
2023/02/27 06:26:14;;;;;;;15.10;4.93;;;;;;;-4.61;100.00;102347.09;5008163;28;19918;-70
2023/02/27 06:28:41;;;;;;;;;;;;;;;-4.62;100.00;102354.06;5008612;28;20049;-74
2023/02/27 06:31:06;;;;;;;19.17;7.30;;;;;;;-4.63;100.00;102356.72;5009807;28;19926;-73
2023/02/27 06:33:32;;;;;;;24.10;6.72;;;;;;;-4.56;100.00;102364.41;4990663;28;20398;-70
2023/02/27 06:35:57;;;;;;;;;;;;;;;-4.46;100.00;102372.94;4990856;28;20040;-74
2023/02/27 06:38:22;;;;;;;23.40;6.53;;;;;;;-4.49;100.00;102375.59;4994405;28;19920;-74
2023/02/27 06:40:49;;;;;;;;;;;;;;;-4.43;100.00;102391.13;5007167;28;20105;-74
2023/02/27 06:43:14;;;;;;;8.88;5.40;;;;;;;-4.47;100.00;102379.03;4990405;28;19917;-72
2023/02/27 06:45:40;;;;;;;18.73;6.35;;;;;;;-4.41;100.00;102388.50;5008355;28;20387;-74
2023/02/27 06:48:05;;;;;;;;;;;;;;;-4.40;100.00;102385.88;5008088;28;20034;-74
2023/02/27 06:50:30;;;;;;;21.33;6.43;;;;;;;-4.34;100.00;102377.91;5005317;28;19928;-71
2023/02/27 06:52:56;;;;;;;;;;;;;;;-4.26;100.00;102378.66;5008119;28;20029;-74
2023/02/27 06:55:23;;;;;;;18.47;6.93;;;;;;;-4.19;100.00;102382.03;5006370;28;20283;-74
2023/02/27 06:57:49;;;;;;;17.65;6.47;;;;;;;-4.09;100.00;102385.31;4998288;28;20296;-70
2023/02/27 07:00:15;;;;;;;21.45;7.60;;;;;;;-3.94;100.00;102392.84;4985930;28;20483;-72
2023/02/27 07:02:40;;;;;;;;;;;;;;;-3.82;100.00;102394.34;4990253;28;20048;-74
2023/02/27 07:05:06;;;;;;;13.30;6.07;;;;;;;-3.61;100.00;102412.22;5007498;28;20326;-74
2023/02/27 07:07:32;;;;;;;30.63;10.32;;;;;;;-3.23;100.00;102425.34;5005878;28;20030;-74
2023/02/27 07:09:58;;;;;;;23.05;8.57;;;;;;;-2.83;100.00;102441.03;5007221;28;20030;-73
2023/02/27 07:12:23;;;;;;;22.15;8.93;;;;;;;-2.35;100.00;102460.84;5007134;28;20038;-72
2023/02/27 07:14:49;;;;;;;20.67;9.10;;;;;;;-1.86;100.00;102470.06;4989907;28;20042;-70
2023/02/27 07:17:14;;;;;;;18.90;9.07;;;;;;;-1.48;100.00;102483.88;5007289;28;20553;-74
2023/02/27 07:19:39;;;;;;;21.13;9.02;;;;;;;-1.15;100.00;102489.06;4989467;28;20428;-74
2023/02/27 07:22:05;;;;;;;23.30;8.65;;;;;;;-0.83;100.00;102508.25;5007092;28;20041;-74
2023/02/27 07:24:30;;;;;;;20.33;8.18;;;;;;;-0.49;100.00;102513.34;5007330;28;20076;-75
2023/02/27 07:26:55;;;;;;;21.27;9.45;;;;;;;-0.36;100.00;102522.53;5006731;28;20038;-74
2023/02/27 07:29:21;;;;;;;23.50;8.07;;;;;;;0.06;100.00;102529.06;5007026;28;20122;-75
2023/02/27 07:31:47;;;;;;;15.35;7.13;;;;;;;0.54;100.00;102541.41;5006660;28;20042;-74
2023/02/27 07:34:13;;;;;;;23.77;9.05;;;;;;;0.91;100.00;102546.22;5007032;28;20092;-74
2023/02/27 07:36:39;;;;;;;19.73;7.40;;;;;;;1.30;100.00;102553.56;5006666;28;20065;-71
2023/02/27 07:39:05;;;;;;;16.67;8.10;;;;;;;1.70;100.00;102562.53;5006549;28;20502;-73
2023/02/27 07:41:30;;;;;;;;;;;;;;;2.19;100.00;102564.97;4988885;28;20077;-75
2023/02/27 07:43:58;;;;;;;14.77;7.03;;;;;;;2.49;100.00;102552.28;4986906;28;19921;-74
2023/02/27 07:46:25;;;;;;;14.43;8.00;;;;;;;3.01;100.00;102530.66;4988509;28;20065;-72
2023/02/27 07:48:51;;;;;;;14.02;7.10;;;;;;;3.40;100.00;102500.69;4971862;28;20509;-76
2023/02/27 07:51:17;;;;;;;28.63;9.77;;;;;;;3.03;100.00;102449.63;5006083;28;20038;-75
2023/02/27 07:53:42;;;;;;;14.37;7.67;;;;;;;2.47;100.00;102373.06;5005888;28;20041;-74
2023/02/27 07:56:07;;;;;;;16.43;7.70;;;;;;;2.16;100.00;102315.63;5008164;28;20030;-75
2023/02/27 07:58:32;;;;;;;20.23;8.03;;;;;;;1.85;100.00;102273.97;5005874;28;20573;-76
2023/02/27 08:00:58;;;;;;;18.97;7.20;;;;;;;1.64;100.00;102238.94;4986218;28;20065;-73
2023/02/27 08:03:23;;;;;;;16.27;6.63;;;;;;;1.40;100.00;102220.66;4988038;28;20049;-73
2023/02/27 08:05:49;;;;;;;15.05;6.60;;;;;;;1.29;100.00;102201.88;5005835;28;20088;-72
2023/02/27 08:08:14;;;;;;;11.53;6.07;;;;;;;1.32;100.00;102207.00;5005756;28;20502;-73
2023/02/27 08:10:39;;;;;;;15.63;6.85;;;;;;;1.25;100.00;102182.72;4987600;28;20150;-75
2023/02/27 08:13:05;;;;;;;15.23;7.43;;;;;;;1.18;100.00;102178.66;5005796;28;20036;-75
2023/02/27 08:15:31;;;;;;;20.70;7.20;;;;;;;1.16;100.00;102180.50;5004582;28;20542;-75
2023/02/27 08:17:57;;;;;;;16.10;6.47;;;;;;;1.23;100.00;102202.97;5002189;28;20299;-72
2023/02/27 08:20:23;;;;;;;22.80;7.05;;;;;;;1.30;100.00;102213.25;5005361;28;20446;-74
2023/02/27 08:22:48;;;;;;;16.65;7.43;;;;;;;1.25;100.00;102201.13;5005565;28;20762;-72
2023/02/27 08:25:14;;;;;;;24.70;7.40;;;;;;;1.34;100.00;102225.34;5005136;28;20030;-72
2023/02/27 08:27:39;;;;;;;16.40;7.07;;;;;;;1.35;100.00;102237.59;5005351;28;20289;-74
2023/02/27 08:30:06;;;;;;;19.80;8.13;;;;;;;1.36;100.00;102241.91;4970134;28;20049;-74
2023/02/27 08:32:32;;;;;;;19.23;8.50;;;;;;;1.47;100.00;102258.09;5004935;28;20033;-75
2023/02/27 08:34:58;;;;;;;17.50;7.35;;;;;;;1.54;100.00;102266.59;4984574;28;20034;-75
2023/02/27 08:37:23;;;;;;;17.50;6.75;;;;;;;1.52;100.00;102250.84;5005895;28;20065;-71
2023/02/27 08:39:49;;;;;;;19.42;8.73;;;;;;;1.48;100.00;102249.28;4987443;28;20061;-72
2023/02/27 08:42:14;;;;;;;16.77;7.30;;;;;;;1.43;100.00;102254.75;4987315;28;20038;-74
2023/02/27 08:44:40;;;;;;;13.07;6.38;;;;;;;1.46;100.00;102277.47;4987600;28;20030;-75
2023/02/27 08:47:05;;;;;;;12.70;5.53;;;;;;;1.51;100.00;102291.28;5004763;28;20037;-73
2023/02/27 08:49:31;;;;;;;12.68;6.32;;;;;;;1.56;100.00;102302.44;5004947;28;20034;-72
2023/02/27 08:51:56;;;;;;;13.25;5.68;;;;;;;1.68;100.00;102314.22;4984795;28;20034;-75
2023/02/27 08:54:22;;;;;;;13.98;5.10;;;;;;;1.76;100.00;102322.66;4991514;28;20042;-74
2023/02/27 08:56:47;;;;;;;14.30;6.37;;;;;;;1.90;100.00;102328.19;5004976;28;20038;-74
2023/02/27 08:59:13;;;;;;;33.05;5.60;;;;;;;1.92;100.00;102330.75;5005017;28;20280;-75
2023/02/27 09:01:39;;;;;;;10.10;6.03;;;;;;;2.00;100.00;102336.53;5003034;28;20042;-72
2023/02/27 09:04:05;;;;;;;17.30;5.40;;;;;;;2.14;100.00;102342.97;5004679;28;20214;-75
2023/02/27 09:06:32;;;;;;;12.57;5.03;;;;;;;2.23;100.00;102337.28;4987173;28;20049;-72
2023/02/27 09:08:58;;;;;;;12.02;5.35;;;;;;;2.28;100.00;102333.50;4985068;28;20030;-75
2023/02/27 09:11:24;;;;;;;15.30;6.47;;;;;;;2.19;100.00;102323.38;4994012;28;20128;-73
2023/02/27 09:13:50;;;;;;;;;;;;;;;2.36;100.00;102330.50;5003842;28;20048;-74
2023/02/27 09:16:16;;;;;;;19.75;7.20;;;;;;;2.56;100.00;102339.28;5003698;28;20370;-75
2023/02/27 09:18:42;;;;;;;17.20;5.65;;;;;;;2.63;100.00;102330.16;5004815;28;20030;-75
2023/02/27 09:21:07;;;;;;;31.55;10.60;;;;;;;2.65;100.00;102323.88;4986611;28;20478;-74
2023/02/27 09:23:33;;;;;;;17.03;6.93;;;;;;;2.91;100.00;102345.53;5005046;28;20037;-73
2023/02/27 09:25:58;;;;;;;15.80;5.33;;;;;;;2.99;100.00;102331.97;5004339;28;20045;-72
2023/02/27 09:28:23;;;;;;;14.70;6.43;;;;;;;3.26;100.00;102338.53;4987305;28;20288;-72
2023/02/27 09:30:49;;;;;;;13.77;5.63;;;;;;;3.66;100.00;102343.59;4990326;28;20486;-74
2023/02/27 09:33:14;;;;;;;12.52;6.45;;;;;;;4.23;100.00;102344.94;5009118;28;20360;-73
2023/02/27 09:35:40;;;;;;;11.63;5.50;;;;;;;4.67;100.00;102316.16;5008244;28;20029;-74
2023/02/27 09:38:06;;;;;;;13.13;5.82;;;;;;;4.83;100.00;102258.78;5013325;28;20458;-74
2023/02/27 09:40:39;;;;;;;13.37;5.63;;;;;;;6.00;100.00;102257.16;5006919;28;20542;-73
2023/02/27 09:43:18;;;;;;;16.15;5.25;;;;;;;7.09;100.00;102171.25;5009782;28;20040;-74
2023/02/27 09:45:46;;;;;;;13.00;5.05;;;;;;;7.88;100.00;102006.22;5007246;28;20562;-72
2023/02/27 09:48:25;;;;;;;12.63;4.93;;;;;;;8.26;100.00;101739.94;5008273;28;20057;-74
2023/02/27 09:50:53;;;;;;;17.48;5.22;;;;;;;8.49;100.00;101557.13;4990355;28;20034;-75
2023/02/27 09:53:38;;;;;;;15.32;4.45;;;;;;;9.15;100.00;101314.38;5008093;28;20479;-71
2023/02/27 09:56:09;;;;;;;16.33;5.05;;;;;;;8.72;100.00;100974.84;5005658;28;20173;-72
2023/02/27 09:59:13;;;;;;;10.63;3.88;;;;;;;9.57;100.00;100959.56;5004362;28;20063;-74
2023/02/27 10:01:46;;;;;;;13.55;4.28;;;;;;;9.99;100.00;100763.44;4975661;28;20049;-73
2023/02/27 10:04:46;;;;;;;12.10;4.10;;;;;;;10.29;100.00;100337.84;5007172;28;20034;-74
2023/02/27 10:07:32;;;;;;;8.32;2.90;;;;;;;10.55;100.00;100183.63;5006575;28;20528;-75
2023/02/27 10:10:17;;;;;;;10.38;3.70;;;;;;;11.31;100.00;100137.47;4989726;28;20064;-74
2023/02/27 10:13:01;;;;;;;12.10;3.58;;;;;;;10.32;98.38;99721.19;5007536;28;20041;-75
2023/02/27 10:15:31;;;;;;;12.75;3.88;;;;;;;9.71;96.33;99522.25;5005121;28;20491;-75
2023/02/27 10:18:20;;;;;;;9.65;3.85;;;;;;;8.84;96.67;99512.25;5005118;28;20083;-75
2023/02/27 10:21:10;;;;;;;12.68;4.35;;;;;;;8.07;97.84;99512.34;4963020;28;20084;-75
2023/02/27 10:23:52;;;;;;;14.88;5.35;;;;;;;7.73;100.00;99807.66;4991994;28;20053;-74
2023/02/27 10:26:25;;;;;;;9.18;3.88;;;;;;;7.66;100.00;100048.44;4988067;28;20030;-75
2023/02/27 10:28:50;;;;;;;13.48;5.25;;;;;;;7.72;100.00;100109.72;5007407;28;20041;-72
2023/02/27 10:31:21;;;;;;;12.00;3.85;;;;;;;7.57;100.00;99966.03;4989105;28;20053;-74
2023/02/27 10:33:47;;;;;;;12.82;4.35;;;;;;;7.11;100.00;99989.41;5006012;28;20045;-73
2023/02/27 10:36:14;;;;;;;11.20;3.92;;;;;;;7.11;100.00;100179.72;4989033;28;20046;-73
2023/02/27 10:38:44;;;;;;;11.70;3.53;;;;;;;7.06;100.00;100172.22;5007070;28;20033;-75
2023/02/27 10:41:13;;;;;;;5.28;3.25;;;;;;;6.87;100.00;100043.19;5006034;28;20490;-75
2023/02/27 10:43:39;;;;;;;9.98;3.28;;;;;;;6.60;99.15;99824.00;5007271;28;20107;-73
2023/02/27 10:46:18;;;;;;;8.32;3.40;;;;;;;6.83;99.13;99938.34;5007957;28;20459;-74
2023/02/27 10:48:43;;;;;;;14.15;4.38;;;;;;;6.68;98.46;99861.19;5007208;28;20490;-72
2023/02/27 10:51:28;;;;;;;12.07;3.40;;;;;;;6.33;98.88;99884.22;4989141;28;20052;-73
2023/02/27 10:54:14;;;;;;;9.43;2.72;;;;;;;6.19;99.35;99953.69;4989362;28;20068;-74
2023/02/27 10:56:40;;;;;;;;;;;;;;;6.38;99.77;100076.47;5003932;28;20034;-75
2023/02/27 10:59:16;;;;;;;12.48;2.67;;;;;;;6.32;99.94;100089.34;5006804;28;19971;-75
2023/02/27 11:01:56;;;;;;;7.70;2.35;;;;;;;5.61;100.00;100037.03;5005485;28;20451;-73
2023/02/27 11:04:26;;;;;;;5.80;2.67;;;;;;;5.86;100.00;100400.28;5006122;28;20038;-75
2023/02/27 11:06:52;;;;;;;5.78;2.15;;;;;;;5.89;100.00;100498.84;5006162;28;20044;-74
2023/02/27 11:09:31;;;;;;;11.65;3.58;;;;;;;5.95;100.00;100492.22;5006250;28;20051;-73
2023/02/27 11:12:25;;;;;;;9.70;2.72;;;;;;;6.14;100.00;100584.16;5003540;28;20041;-74
2023/02/27 11:14:54;;;;;;;6.55;2.30;;;;;;;6.00;100.00;100519.13;5004308;28;20046;-74
2023/02/27 11:17:32;;;;;;;6.85;3.25;;;;;;;6.05;100.00;100633.50;5006952;28;20558;-73
2023/02/27 11:20:00;;;;;;;8.30;2.55;;;;;;;6.01;100.00;100657.78;4986625;28;20542;-73
2023/02/27 11:22:28;;;;;;;10.10;2.95;;;;;;;5.92;100.00;100677.94;4988404;28;20038;-74
2023/02/27 11:25:29;;;;;;;10.50;4.00;;;;;;;5.91;100.00;100673.63;5006049;28;20032;-75
2023/02/27 11:28:13;;;;;;;10.50;3.72;;;;;;;5.79;100.00;100656.16;4922932;29;20035;-75
2023/02/27 11:30:42;;;;;;;10.45;3.97;;;;;;;5.48;100.00;100574.06;4925554;29;20162;-74
2023/02/27 11:33:17;;;;;;;6.50;3.00;;;;;;;5.80;100.00;100857.34;4927953;29;20044;-74
2023/02/27 11:35:50;;;;;;;10.90;3.85;;;;;;;5.89;100.00;100830.06;4926755;29;20527;-74
2023/02/27 11:38:19;;;;;;;7.72;2.95;;;;;;;5.84;100.00;100771.34;4904526;29;20055;-74
2023/02/27 11:40:52;;;;;;;5.97;2.22;;;;;;;5.76;100.00;100747.31;4926248;29;20209;-71
2023/02/27 11:43:28;;;;;;;7.07;2.33;;;;;;;5.63;100.00;100750.16;4926405;29;20130;-75